Portada
METAR-TAF:

METAR-TAF

Aeroports :

Bombai, Índia

latitud: 19-07N, longitud: 072-51E, altitud: 8 m

Observació

L'informe es va fer fa 36 minuts, a les 09:30 UTC
Vent 7 kt del Oest/Sud-Oest
Temperatura 27°C
Humitat 32%
Pressió 1010 hPa
Visibilitat: 3000 m
fum

METAR: VABB 250930Z 25007KT 3000 FU NSC 27/09 Q1010 NOSIG

Hora: 15:36 (10:06 UTC)

Pronòstic

L'informe es va fer fa 2 hores i 6 minuts, a les 08:00 UTC
Pronòstic vàlid del 25 a les 09 UTC al 25 a les 18 UTC
Vent 10 kt del Oest/Nord-Oest
Visibilitat: 3000 m
fum
Evolucionant progressivament
l' 25 a les 13 UTC al 25 a les 15 UTC
Vent 8 kt del Nord
Visibilitat: 2500 m
fum

TAF: VABB 250800Z 2509/2518 29010KT 3000 FU NSC BECMG 2513/2515 35008KT 2500 FU

Observacions i pronòstics meteorològics de més de 4000 aeroports (METAR i TAF).

Les estacions disponibles són els punts grocs i vermells al mapa.

Posi el ratolí al punt desitjat per veure el nom de l'estació.

Feu clic per veure les observacions i els pronòstics meteorològics.

Per canviar el mapa: feu clic els botons verds amb una creu de color negre per apropar; al botó verd amb un guió per allunyar la imatge; o en les fletxes verdes per a mapes adjacents.


METAR-TAF: